createdAt,value
2022-11-27T00:04:26.513Z,1010.45
2022-11-27T00:09:26.457Z,1010.39
2022-11-27T00:14:26.392Z,1010.37
2022-11-27T00:19:26.361Z,1010.30
2022-11-27T00:24:26.336Z,1010.22
2022-11-27T00:29:26.265Z,1010.16
2022-11-27T00:34:26.215Z,1010.12
2022-11-27T00:39:26.137Z,1010.06
2022-11-27T00:44:26.112Z,1010.06
2022-11-27T00:49:26.091Z,1010.04
2022-11-27T00:54:25.972Z,1010.15
2022-11-27T00:59:25.942Z,1010.05
2022-11-27T01:04:25.880Z,1010.04
2022-11-27T01:09:25.838Z,1010.09
2022-11-27T01:14:27.812Z,1010.11
2022-11-27T01:19:25.689Z,1010.12
2022-11-27T01:24:25.690Z,1010.14
2022-11-27T01:29:25.589Z,1010.03
2022-11-27T01:34:25.550Z,1009.98
2022-11-27T01:39:25.523Z,1009.93
2022-11-27T01:44:25.491Z,1009.87
2022-11-27T01:49:25.409Z,1009.92
2022-11-27T01:54:25.362Z,1009.93
2022-11-27T01:59:25.309Z,1009.81
2022-11-27T02:04:25.221Z,1009.62
2022-11-27T02:09:25.163Z,1009.64
2022-11-27T02:14:25.147Z,1009.62
2022-11-27T02:19:25.196Z,1009.50
2022-11-27T02:24:26.046Z,1009.52
2022-11-27T02:29:24.959Z,1009.42
2022-11-27T02:34:24.898Z,1009.40
2022-11-27T02:39:24.896Z,1009.52
2022-11-27T02:44:24.883Z,1009.48
2022-11-27T02:49:25.804Z,1009.46
2022-11-27T02:54:24.711Z,1009.28
2022-11-27T02:59:24.652Z,1009.22
2022-11-27T03:04:24.577Z,1009.23
2022-11-27T03:09:24.570Z,1009.19
2022-11-27T03:14:24.482Z,1009.12
2022-11-27T03:19:24.458Z,1009.01
2022-11-27T03:24:24.383Z,1008.88
2022-11-27T03:29:24.319Z,1008.78
2022-11-27T03:34:24.294Z,1008.81
2022-11-27T03:39:33.063Z,1008.87
2022-11-27T03:44:24.139Z,1008.90
2022-11-27T03:49:24.117Z,1008.99
2022-11-27T03:54:24.048Z,1008.93
2022-11-27T03:59:24.044Z,1008.93
2022-11-27T04:04:23.999Z,1008.86
2022-11-27T04:09:23.929Z,1008.74
2022-11-27T04:14:23.869Z,1008.58
2022-11-27T04:19:23.785Z,1008.50
2022-11-27T04:24:23.773Z,1008.50
2022-11-27T04:29:23.727Z,1008.37
2022-11-27T04:34:23.689Z,1008.35
2022-11-27T04:39:23.620Z,1008.11
2022-11-27T04:44:23.604Z,1008.09
2022-11-27T04:49:23.481Z,1007.95
2022-11-27T04:54:24.423Z,1007.96
2022-11-27T04:59:23.420Z,1007.82
2022-11-27T05:04:23.314Z,1007.74
2022-11-27T05:09:23.298Z,1007.71
2022-11-27T05:14:23.243Z,1007.65
2022-11-27T05:19:23.180Z,1007.65
2022-11-27T05:24:23.125Z,1007.74
2022-11-27T05:29:23.052Z,1007.61
2022-11-27T05:34:22.991Z,1007.45
2022-11-27T05:39:22.923Z,1007.35
2022-11-27T05:44:22.876Z,1007.33
2022-11-27T05:49:26.818Z,1007.33
2022-11-27T05:54:26.406Z,1007.36
2022-11-27T06:01:24.095Z,1007.37
2022-11-27T06:06:23.428Z,1007.27
2022-11-27T06:14:06.306Z,1007.15
2022-11-27T06:26:01.900Z,1007.17
2022-11-27T06:37:01.253Z,1007.07
2022-11-27T06:42:00.937Z,1007.00
2022-11-27T06:47:00.851Z,1006.94
2022-11-27T06:52:00.826Z,1006.89
2022-11-27T06:57:01.328Z,1006.79
2022-11-27T07:02:00.862Z,1006.79
2022-11-27T07:07:02.053Z,1006.67
2022-11-27T07:12:01.792Z,1006.67
2022-11-27T07:17:00.591Z,1006.62
2022-11-27T07:22:00.517Z,1006.57
2022-11-27T07:27:00.474Z,1006.52
2022-11-27T07:32:09.783Z,1006.42
2022-11-27T07:37:00.395Z,1006.48
2022-11-27T07:42:36.842Z,1006.38
2022-11-27T07:47:01.200Z,1006.40
2022-11-27T07:52:01.157Z,1006.51
2022-11-27T07:57:01.097Z,1006.37
2022-11-27T08:02:00.239Z,1006.29
2022-11-27T08:07:01.125Z,1006.20
2022-11-27T08:11:59.924Z,1006.13
2022-11-27T08:16:59.888Z,1006.07
2022-11-27T08:22:01.421Z,1006.18
2022-11-27T08:26:59.852Z,1005.96
2022-11-27T08:31:59.788Z,1005.86
2022-11-27T08:37:07.434Z,1005.92
2022-11-27T08:42:00.634Z,1005.87
2022-11-27T08:47:00.556Z,1005.78
2022-11-27T08:51:59.470Z,1005.91
2022-11-27T08:56:59.406Z,1005.65
2022-11-27T09:02:01.435Z,1005.76
2022-11-27T09:06:59.601Z,1005.77
2022-11-27T09:11:59.765Z,1005.65
2022-11-27T09:17:01.924Z,1005.67
2022-11-27T09:21:59.648Z,1005.56
2022-11-27T09:27:00.085Z,1005.67
2022-11-27T09:31:59.156Z,1005.50
2022-11-27T09:37:01.485Z,1005.41
2022-11-27T09:42:07.900Z,1005.44
2022-11-27T09:46:58.825Z,1005.40
2022-11-27T09:51:58.776Z,1005.24
2022-11-27T09:56:58.743Z,1005.27
2022-11-27T10:01:58.748Z,1005.16
2022-11-27T10:06:58.956Z,1005.24
2022-11-27T10:11:58.592Z,1005.11
2022-11-27T10:16:58.610Z,1005.03
2022-11-27T10:21:58.428Z,1005.10
2022-11-27T10:26:58.428Z,1005.02
2022-11-27T10:31:58.540Z,1004.95
2022-11-27T10:36:58.304Z,1004.83
2022-11-27T10:41:58.260Z,1004.81
2022-11-27T10:46:58.345Z,1004.82
2022-11-27T10:51:58.203Z,1004.73
2022-11-27T10:56:58.193Z,1004.61
2022-11-27T11:01:58.066Z,1004.57
2022-11-27T11:06:57.990Z,1004.47
2022-11-27T11:11:57.922Z,1004.48
2022-11-27T11:16:57.957Z,1004.38
2022-11-27T11:21:57.933Z,1004.35
2022-11-27T11:26:57.881Z,1004.34
2022-11-27T11:31:57.769Z,1004.27
2022-11-27T11:36:57.658Z,1004.08
2022-11-27T11:41:57.614Z,1003.95
2022-11-27T11:46:57.547Z,1003.87
2022-11-27T11:51:57.461Z,1003.85
2022-11-27T11:56:57.463Z,1003.73
2022-11-27T12:01:57.403Z,1003.74
2022-11-27T12:06:57.295Z,1003.58
2022-11-27T12:11:57.287Z,1003.46
2022-11-27T12:16:58.251Z,1003.29
2022-11-27T12:21:57.161Z,1003.22
2022-11-27T12:26:57.104Z,1002.72
2022-11-27T12:31:57.075Z,1002.42
2022-11-27T12:36:57.017Z,1002.55
2022-11-27T12:41:56.953Z,1002.50
2022-11-27T12:46:56.829Z,1002.47
2022-11-27T12:51:56.826Z,1002.38
2022-11-27T12:56:56.867Z,1002.34
2022-11-27T13:01:58.672Z,1002.20
2022-11-27T13:06:57.437Z,1002.18
2022-11-27T13:11:56.606Z,1002.18
2022-11-27T13:16:56.584Z,1002.19
2022-11-27T13:21:56.456Z,1002.14
2022-11-27T13:26:56.417Z,1002.04
2022-11-27T13:31:56.579Z,1001.90
2022-11-27T13:36:56.395Z,1001.87
2022-11-27T13:41:56.265Z,1001.78
2022-11-27T13:46:56.180Z,1001.74
2022-11-27T13:51:56.135Z,1001.63
2022-11-27T13:56:56.133Z,1001.69
2022-11-27T14:01:56.178Z,1001.62
2022-11-27T14:06:57.061Z,1001.58
2022-11-27T14:11:57.019Z,1001.60
2022-11-27T14:16:55.956Z,1001.68
2022-11-27T14:21:55.909Z,1001.70
2022-11-27T14:26:55.847Z,1001.76
2022-11-27T14:31:55.834Z,1001.81
2022-11-27T14:36:55.781Z,1001.74
2022-11-27T14:41:55.696Z,1001.59
2022-11-27T14:46:55.621Z,1001.43
2022-11-27T14:51:55.761Z,1001.52
2022-11-27T14:56:55.389Z,1001.65
2022-11-27T15:01:55.406Z,1001.58
2022-11-27T15:06:55.438Z,1001.57
2022-11-27T15:11:56.613Z,1001.56
2022-11-27T15:16:55.244Z,1001.63
2022-11-27T15:21:55.196Z,1001.56
2022-11-27T15:26:55.131Z,1001.31
2022-11-27T15:31:55.204Z,1001.29
2022-11-27T15:36:55.012Z,1001.16
2022-11-27T15:41:55.002Z,1001.20
2022-11-27T15:46:54.934Z,1001.10
2022-11-27T15:51:54.790Z,1001.11
2022-11-27T15:56:54.802Z,1001.21
2022-11-27T16:01:55.782Z,1001.17
2022-11-27T16:06:54.770Z,1001.06
2022-11-27T16:11:54.714Z,1001.05
2022-11-27T16:16:54.618Z,1000.86
2022-11-27T16:21:54.563Z,1000.72
2022-11-27T16:26:54.544Z,1000.61
2022-11-27T16:31:54.808Z,1000.60
2022-11-27T16:36:54.324Z,1000.65
2022-11-27T16:41:54.282Z,1000.52
2022-11-27T16:46:54.266Z,1000.43
2022-11-27T16:51:54.260Z,1000.33
2022-11-27T16:56:54.205Z,1000.37
2022-11-27T17:01:54.145Z,1000.17
2022-11-27T17:06:54.041Z,1000.06
2022-11-27T17:11:53.973Z,999.99
2022-11-27T17:16:53.947Z,999.91
2022-11-27T17:21:53.816Z,999.85
2022-11-27T17:26:54.160Z,999.70
2022-11-27T17:31:54.874Z,999.60
2022-11-27T17:36:53.790Z,999.47
2022-11-27T17:41:53.737Z,999.39
2022-11-27T17:46:53.674Z,999.31
2022-11-27T17:51:53.552Z,999.25
2022-11-27T17:56:53.540Z,999.17
2022-11-27T18:01:53.544Z,999.09
2022-11-27T18:06:53.513Z,999.05
2022-11-27T18:11:53.276Z,998.91
2022-11-27T18:16:53.532Z,999.02
2022-11-27T18:21:53.246Z,998.90
2022-11-27T18:27:08.289Z,998.95
2022-11-27T18:31:54.160Z,999.00
2022-11-27T18:36:54.037Z,998.78
2022-11-27T18:41:53.024Z,998.53
2022-11-27T18:46:52.936Z,998.47
2022-11-27T18:51:52.902Z,998.37
2022-11-27T18:56:52.916Z,998.24
2022-11-27T19:01:52.856Z,998.12
2022-11-27T19:06:52.743Z,998.20
2022-11-27T19:11:52.679Z,998.17
2022-11-27T19:16:52.720Z,998.28
2022-11-27T19:21:52.650Z,998.47
2022-11-27T19:26:52.518Z,998.57
2022-11-27T19:31:54.456Z,998.33
2022-11-27T19:36:52.371Z,998.15
2022-11-27T19:41:52.333Z,998.11
2022-11-27T19:46:52.331Z,998.22
2022-11-27T19:51:52.270Z,998.21
2022-11-27T19:56:52.303Z,998.14
2022-11-27T20:01:52.170Z,998.02
2022-11-27T20:06:52.143Z,998.11
2022-11-27T20:11:51.987Z,998.10
2022-11-27T20:16:52.069Z,998.02
2022-11-27T20:21:51.898Z,997.95
2022-11-27T20:26:51.972Z,997.82
2022-11-27T20:31:51.933Z,997.84
2022-11-27T20:36:51.722Z,997.87
2022-11-27T20:41:51.726Z,997.68
2022-11-27T20:46:51.620Z,997.67
2022-11-27T20:51:51.584Z,997.67
2022-11-27T20:56:51.523Z,997.58
2022-11-27T21:01:51.561Z,997.44
2022-11-27T21:06:51.391Z,997.45
2022-11-27T21:11:51.393Z,997.44
2022-11-27T21:16:51.510Z,997.32
2022-11-27T21:21:51.339Z,997.30
2022-11-27T21:26:51.264Z,997.34
2022-11-27T21:31:51.167Z,997.21
2022-11-27T21:36:51.043Z,997.17
2022-11-27T21:41:54.451Z,997.12
2022-11-27T21:46:51.074Z,997.02
2022-11-27T21:51:50.850Z,996.74
2022-11-27T21:56:50.843Z,996.70
2022-11-27T22:01:54.205Z,996.64
2022-11-27T22:06:50.815Z,996.53
2022-11-27T22:11:50.842Z,996.44
2022-11-27T22:16:50.624Z,996.34
2022-11-27T22:21:50.523Z,996.43
2022-11-27T22:26:50.488Z,996.50
2022-11-27T22:31:50.423Z,996.56
2022-11-27T22:36:50.398Z,996.60
2022-11-27T22:41:50.349Z,996.59
2022-11-27T22:46:50.386Z,996.66
2022-11-27T22:51:50.189Z,996.62
2022-11-27T22:56:50.127Z,996.60
2022-11-27T23:02:00.471Z,996.53
2022-11-27T23:06:50.059Z,996.50
2022-11-27T23:11:49.974Z,996.44
2022-11-27T23:16:49.997Z,996.33
2022-11-27T23:21:49.838Z,996.26
2022-11-27T23:26:49.784Z,996.15
2022-11-27T23:31:49.751Z,996.11
2022-11-27T23:36:49.685Z,996.04
2022-11-27T23:41:49.700Z,996.08
2022-11-27T23:46:49.556Z,996.02
2022-11-27T23:51:49.538Z,995.99
2022-11-27T23:56:49.445Z,995.93
